Shoei Maru No.55 — JL6485 — position and weather

sailwx.info

Track history (hours):
 
Tides and Currents Weather Stations Pressure Air Temp Water Temp Dewpoint Dewpoint Depression Visibility Wind Speed Wind Dir Waves Ship Positions

Shoei Maru No.55

Last reported at 2017-Nov-17 04:52 UTC. Time now 2017-Nov-21 23:14 UTC.
Position N 34°60' E 139°28'.

Length 72 m; draft 4.5 m.

Type: Cargo ship. MMSI: 431500583.

Date/timePositionNaut miles runAvg speedWind from/ knotsBaromVisibWave heightAir tempDewpointWater temp
2017-Nov-17 04:52N 34°60' E 139°28'511.3
2017-Nov-17 04:24N 35°03' E 139°33'512.1
2017-Nov-17 04:00N 35°05' E 139°38'612.1
2017-Nov-17 03:30N 35°09' E 139°44'611.2
2017-Nov-17 03:00N 35°14' E 139°46'510.8
2017-Nov-17 02:31N 35°19' E 139°43'510.5
2017-Nov-17 02:01N 35°24' E 139°42'5 9.9
2017-Nov-17 01:30N 35°29' E 139°42'1 2.0
2017-Nov-17 01:00N 35°30' E 139°43'0 0.0
2017-Nov-17 00:31N 35°30' E 139°43'0 0.0
2017-Nov-17 00:00N 35°30' E 139°43'0 0.0
2017-Nov-16 23:30N 35°30' E 139°43'0 0.0
2017-Nov-16 23:01N 35°30' E 139°43'0 0.0
2017-Nov-16 22:30N 35°30' E 139°43'0 0.0
2017-Nov-16 22:00N 35°30' E 139°43'0 0.0
2017-Nov-16 21:28N 35°30' E 139°43'0 0.0
2017-Nov-16 20:58N 35°30' E 139°43'0 0.0
2017-Nov-16 20:30N 35°30' E 139°43'0 0.0
2017-Nov-16 19:59N 35°30' E 139°43'0 0.0
2017-Nov-16 19:30N 35°30' E 139°43'0 0.0
2017-Nov-16 19:00N 35°30' E 139°43'0 0.0
2017-Nov-16 18:30N 35°30' E 139°43'0 0.0
2017-Nov-16 18:00N 35°30' E 139°43'0 0.0
2017-Nov-16 17:30N 35°30' E 139°43'0 0.0
2017-Nov-16 17:00N 35°30' E 139°43'0 0.0
2017-Nov-16 16:31N 35°30' E 139°43'0 0.0
2017-Nov-16 16:01N 35°30' E 139°43'0 0.0
2017-Nov-16 15:30N 35°30' E 139°43'0 0.0
2017-Nov-16 15:01N 35°30' E 139°43'0 0.0
2017-Nov-16 14:30N 35°30' E 139°43'0 0.0
2017-Nov-16 14:00N 35°30' E 139°43'0 0.0
2017-Nov-16 13:31N 35°30' E 139°43'0 0.0
2017-Nov-16 13:00N 35°30' E 139°43'0 0.0
2017-Nov-16 12:30N 35°30' E 139°43'0 0.0
2017-Nov-16 12:01N 35°30' E 139°43'0 0.0
2017-Nov-16 11:31N 35°30' E 139°43'0 0.0
2017-Nov-16 11:01N 35°30' E 139°43'0 0.0
2017-Nov-16 10:30N 35°30' E 139°43'0 0.0
2017-Nov-16 10:01N 35°30' E 139°43'0 0.0
2017-Nov-16 09:30N 35°30' E 139°43'0 0.0
2017-Nov-16 09:00N 35°30' E 139°43'0 0.0
2017-Nov-16 08:30N 35°30' E 139°43'0 0.0
2017-Nov-16 08:00N 35°30' E 139°43'0 0.0
2017-Nov-16 07:31N 35°30' E 139°43'0 0.0
2017-Nov-16 07:00N 35°30' E 139°43'0 0.1
2017-Nov-16 06:31N 35°30' E 139°43'1 1.2
2017-Nov-16 06:01N 35°30' E 139°44'510.5
2017-Nov-16 05:30N 35°32' E 139°50'4 0.4
2017-Nov-15 19:52N 35°35' E 139°46'0 0.0
2017-Nov-15 19:28N 35°35' E 139°46'0 0.0
2017-Nov-15 18:52N 35°35' E 139°46'1 2.0
2017-Nov-15 18:30N 35°35' E 139°47'5 8.9
2017-Nov-15 17:58N 35°30' E 139°50'510.9
2017-Nov-15 17:30N 35°26' E 139°47'510.7
2017-Nov-15 17:00N 35°21' E 139°45'5 9.9
2017-Nov-15 16:30N 35°16' E 139°47'510.4
2017-Nov-15 16:00N 35°11' E 139°46'510.0
2017-Nov-15 15:30N 35°06' E 139°44'510.5
2017-Nov-15 15:00N 35°02' E 139°40'510.9
2017-Nov-15 14:30N 34°59' E 139°34'611.2
2017-Nov-15 13:59N 34°56' E 139°29'  
2017-Nov-11 05:59N 34°59' E 139°25'5 9.7
2017-Nov-11 05:30N 35°01' E 139°30'5 9.6
2017-Nov-11 05:00N 35°04' E 139°35'5 9.5
2017-Nov-11 04:30N 35°06' E 139°40'5 9.4
2017-Nov-11 04:00N 35°09' E 139°44'510.4
2017-Nov-11 03:30N 35°14' E 139°46'510.6
2017-Nov-11 03:01N 35°19' E 139°43'510.9
2017-Nov-11 02:31N 35°24' E 139°42'510.3
2017-Nov-11 02:01N 35°29' E 139°42'1 1.7
2017-Nov-11 01:26N 35°30' E 139°43'0 0.0
2017-Nov-11 00:59N 35°30' E 139°43'0 0.0
2017-Nov-11 00:26N 35°30' E 139°43'0 0.0
2017-Nov-10 23:59N 35°30' E 139°43'0 0.0
2017-Nov-10 23:29N 35°30' E 139°43'0 0.3
2017-Nov-10 23:00N 35°30' E 139°43'6 6.3
2017-Nov-10 22:05N 35°31' E 139°50'0 0.1
2017-Nov-10 21:59N 35°31' E 139°50'0 0.0
2017-Nov-10 21:18N 35°31' E 139°50'0 0.0
2017-Nov-10 20:59N 35°31' E 139°50'0 0.1
2017-Nov-10 20:21N 35°31' E 139°50'0 0.0
2017-Nov-10 19:46N 35°31' E 139°50'0 0.2
2017-Nov-10 19:29N 35°31' E 139°50'0 0.1
2017-Nov-10 18:57N 35°31' E 139°50'0 0.0
2017-Nov-10 18:27N 35°31' E 139°50'0 0.0
2017-Nov-10 17:54N 35°31' E 139°50'0 0.0
2017-Nov-10 17:30N 35°31' E 139°50'0 0.0
2017-Nov-10 14:41N 35°31' E 139°50'0 0.0
2017-Nov-10 13:08N 35°31' E 139°50'0 0.0
2017-Nov-10 11:11N 35°31' E 139°50'0 0.2
2017-Nov-10 10:59N 35°31' E 139°50'0 0.0
2017-Nov-10 10:23N 35°31' E 139°50'0 0.0
2017-Nov-10 09:56N 35°31' E 139°50'0 0.0
2017-Nov-10 09:26N 35°31' E 139°50'0 0.0
2017-Nov-10 08:56N 35°31' E 139°50'0 0.0
2017-Nov-10 07:56N 35°31' E 139°50'0 0.0
2017-Nov-10 07:26N 35°31' E 139°50'0 0.0
2017-Nov-10 06:59N 35°31' E 139°50'0 0.0
2017-Nov-10 05:44N 35°31' E 139°50'0 0.2
2017-Nov-10 05:26N 35°31' E 139°50'0 1.0
2017-Nov-10 05:00N 35°31' E 139°50'5 7.6
2017-Nov-10 04:23N 35°35' E 139°46'0 0.0
2017-Nov-10 03:59N 35°35' E 139°46'0 0.0
2017-Nov-10 03:29N 35°35' E 139°46'0 0.0
2017-Nov-10 02:50N 35°35' E 139°46'0 0.0
2017-Nov-10 02:26N 35°35' E 139°46'0 0.0
2017-Nov-10 01:59N 35°35' E 139°46'0 0.0
2017-Nov-10 01:29N 35°35' E 139°46'0 0.0
2017-Nov-10 00:44N 35°35' E 139°46'0 0.0
2017-Nov-10 00:26N 35°35' E 139°46'0 0.0
2017-Nov-09 23:56N 35°35' E 139°46'0 0.0
2017-Nov-09 23:20N 35°35' E 139°46'0 0.0
2017-Nov-09 21:50N 35°35' E 139°46'0 0.4
2017-Nov-09 21:26N 35°35' E 139°46'0 0.0
2017-Nov-09 20:44N 35°35' E 139°46'0 0.2
2017-Nov-09 20:28N 35°35' E 139°46'3 6.8
2017-Nov-09 19:58N 35°33' E 139°50'5 9.9
2017-Nov-09 19:30N 35°29' E 139°48'5 9.6
2017-Nov-09 19:00N 35°24' E 139°46'5 9.8
2017-Nov-09 18:30N 35°20' E 139°44'5 9.3
2017-Nov-09 18:00N 35°15' E 139°47'5 9.4
2017-Nov-09 17:28N 35°10' E 139°47'  
Track history (hours):
 
Tides and Currents Weather Stations Pressure Air Temp Water Temp Dewpoint Dewpoint Depression Visibility Wind Speed Wind Dir Waves Ship Positions

Shoei Maru No.55

Last reported at 2017-Nov-17 04:52 UTC. Time now 2017-Nov-21 23:14 UTC.
Position N 34°60' E 139°28'.

Length 72 m; draft 4.5 m.

Type: Cargo ship. MMSI: 431500583.

Date/timePositionNaut miles runAvg speedWind from/ knotsBaromVisibWave heightAir tempDewpointWater temp
2017-Nov-17 04:52N 34°60' E 139°28'511.3
2017-Nov-17 04:24N 35°03' E 139°33'512.1
2017-Nov-17 04:00N 35°05' E 139°38'612.1
2017-Nov-17 03:30N 35°09' E 139°44'611.2
2017-Nov-17 03:00N 35°14' E 139°46'510.8
2017-Nov-17 02:31N 35°19' E 139°43'510.5
2017-Nov-17 02:01N 35°24' E 139°42'5 9.9
2017-Nov-17 01:30N 35°29' E 139°42'1 2.0
2017-Nov-17 01:00N 35°30' E 139°43'0 0.0
2017-Nov-17 00:31N 35°30' E 139°43'0 0.0
2017-Nov-17 00:00N 35°30' E 139°43'0 0.0
2017-Nov-16 23:30N 35°30' E 139°43'0 0.0
2017-Nov-16 23:01N 35°30' E 139°43'0 0.0
2017-Nov-16 22:30N 35°30' E 139°43'0 0.0
2017-Nov-16 22:00N 35°30' E 139°43'0 0.0
2017-Nov-16 21:28N 35°30' E 139°43'0 0.0
2017-Nov-16 20:58N 35°30' E 139°43'0 0.0
2017-Nov-16 20:30N 35°30' E 139°43'0 0.0
2017-Nov-16 19:59N 35°30' E 139°43'0 0.0
2017-Nov-16 19:30N 35°30' E 139°43'0 0.0
2017-Nov-16 19:00N 35°30' E 139°43'0 0.0
2017-Nov-16 18:30N 35°30' E 139°43'0 0.0
2017-Nov-16 18:00N 35°30' E 139°43'0 0.0
2017-Nov-16 17:30N 35°30' E 139°43'0 0.0
2017-Nov-16 17:00N 35°30' E 139°43'0 0.0
2017-Nov-16 16:31N 35°30' E 139°43'0 0.0
2017-Nov-16 16:01N 35°30' E 139°43'0 0.0
2017-Nov-16 15:30N 35°30' E 139°43'0 0.0
2017-Nov-16 15:01N 35°30' E 139°43'0 0.0
2017-Nov-16 14:30N 35°30' E 139°43'0 0.0
2017-Nov-16 14:00N 35°30' E 139°43'0 0.0
2017-Nov-16 13:31N 35°30' E 139°43'0 0.0
2017-Nov-16 13:00N 35°30' E 139°43'0 0.0
2017-Nov-16 12:30N 35°30' E 139°43'0 0.0
2017-Nov-16 12:01N 35°30' E 139°43'0 0.0
2017-Nov-16 11:31N 35°30' E 139°43'0 0.0
2017-Nov-16 11:01N 35°30' E 139°43'0 0.0
2017-Nov-16 10:30N 35°30' E 139°43'0 0.0
2017-Nov-16 10:01N 35°30' E 139°43'0 0.0
2017-Nov-16 09:30N 35°30' E 139°43'0 0.0
2017-Nov-16 09:00N 35°30' E 139°43'0 0.0
2017-Nov-16 08:30N 35°30' E 139°43'0 0.0
2017-Nov-16 08:00N 35°30' E 139°43'0 0.0
2017-Nov-16 07:31N 35°30' E 139°43'0 0.0
2017-Nov-16 07:00N 35°30' E 139°43'0 0.1
2017-Nov-16 06:31N 35°30' E 139°43'1 1.2
2017-Nov-16 06:01N 35°30' E 139°44'510.5
2017-Nov-16 05:30N 35°32' E 139°50'4 0.4
2017-Nov-15 19:52N 35°35' E 139°46'0 0.0
2017-Nov-15 19:28N 35°35' E 139°46'0 0.0
2017-Nov-15 18:52N 35°35' E 139°46'1 2.0
2017-Nov-15 18:30N 35°35' E 139°47'5 8.9
2017-Nov-15 17:58N 35°30' E 139°50'510.9
2017-Nov-15 17:30N 35°26' E 139°47'510.7
2017-Nov-15 17:00N 35°21' E 139°45'5 9.9
2017-Nov-15 16:30N 35°16' E 139°47'510.4
2017-Nov-15 16:00N 35°11' E 139°46'510.0
2017-Nov-15 15:30N 35°06' E 139°44'510.5
2017-Nov-15 15:00N 35°02' E 139°40'510.9
2017-Nov-15 14:30N 34°59' E 139°34'611.2
2017-Nov-15 13:59N 34°56' E 139°29'  
2017-Nov-11 05:59N 34°59' E 139°25'5 9.7
2017-Nov-11 05:30N 35°01' E 139°30'5 9.6
2017-Nov-11 05:00N 35°04' E 139°35'5 9.5
2017-Nov-11 04:30N 35°06' E 139°40'5 9.4
2017-Nov-11 04:00N 35°09' E 139°44'510.4
2017-Nov-11 03:30N 35°14' E 139°46'510.6
2017-Nov-11 03:01N 35°19' E 139°43'510.9
2017-Nov-11 02:31N 35°24' E 139°42'510.3
2017-Nov-11 02:01N 35°29' E 139°42'1 1.7
2017-Nov-11 01:26N 35°30' E 139°43'0 0.0
2017-Nov-11 00:59N 35°30' E 139°43'0 0.0
2017-Nov-11 00:26N 35°30' E 139°43'0 0.0
2017-Nov-10 23:59N 35°30' E 139°43'0 0.0
2017-Nov-10 23:29N 35°30' E 139°43'0 0.3
2017-Nov-10 23:00N 35°30' E 139°43'6 6.3
2017-Nov-10 22:05N 35°31' E 139°50'0 0.1
2017-Nov-10 21:59N 35°31' E 139°50'0 0.0
2017-Nov-10 21:18N 35°31' E 139°50'0 0.0
2017-Nov-10 20:59N 35°31' E 139°50'0 0.1
2017-Nov-10 20:21N 35°31' E 139°50'0 0.0
2017-Nov-10 19:46N 35°31' E 139°50'0 0.2
2017-Nov-10 19:29N 35°31' E 139°50'0 0.1
2017-Nov-10 18:57N 35°31' E 139°50'0 0.0
2017-Nov-10 18:27N 35°31' E 139°50'0 0.0
2017-Nov-10 17:54N 35°31' E 139°50'0 0.0
2017-Nov-10 17:30N 35°31' E 139°50'0 0.0
2017-Nov-10 14:41N 35°31' E 139°50'0 0.0
2017-Nov-10 13:08N 35°31' E 139°50'0 0.0
2017-Nov-10 11:11N 35°31' E 139°50'0 0.2
2017-Nov-10 10:59N 35°31' E 139°50'0 0.0
2017-Nov-10 10:23N 35°31' E 139°50'0 0.0
2017-Nov-10 09:56N 35°31' E 139°50'0 0.0
2017-Nov-10 09:26N 35°31' E 139°50'0 0.0
2017-Nov-10 08:56N 35°31' E 139°50'0 0.0
2017-Nov-10 07:56N 35°31' E 139°50'0 0.0
2017-Nov-10 07:26N 35°31' E 139°50'0 0.0
2017-Nov-10 06:59N 35°31' E 139°50'0 0.0
2017-Nov-10 05:44N 35°31' E 139°50'0 0.2
2017-Nov-10 05:26N 35°31' E 139°50'0 1.0
2017-Nov-10 05:00N 35°31' E 139°50'5 7.6
2017-Nov-10 04:23N 35°35' E 139°46'0 0.0
2017-Nov-10 03:59N 35°35' E 139°46'0 0.0
2017-Nov-10 03:29N 35°35' E 139°46'0 0.0
2017-Nov-10 02:50N 35°35' E 139°46'0 0.0
2017-Nov-10 02:26N 35°35' E 139°46'0 0.0
2017-Nov-10 01:59N 35°35' E 139°46'0 0.0
2017-Nov-10 01:29N 35°35' E 139°46'0 0.0
2017-Nov-10 00:44N 35°35' E 139°46'0 0.0
2017-Nov-10 00:26N 35°35' E 139°46'0 0.0
2017-Nov-09 23:56N 35°35' E 139°46'0 0.0
2017-Nov-09 23:20N 35°35' E 139°46'0 0.0
2017-Nov-09 21:50N 35°35' E 139°46'0 0.4
2017-Nov-09 21:26N 35°35' E 139°46'0 0.0
2017-Nov-09 20:44N 35°35' E 139°46'0 0.2
2017-Nov-09 20:28N 35°35' E 139°46'3 6.8
2017-Nov-09 19:58N 35°33' E 139°50'5 9.9
2017-Nov-09 19:30N 35°29' E 139°48'5 9.6
2017-Nov-09 19:00N 35°24' E 139°46'5 9.8
2017-Nov-09 18:30N 35°20' E 139°44'5 9.3
2017-Nov-09 18:00N 35°15' E 139°47'5 9.4
2017-Nov-09 17:28N 35°10' E 139°47'  

Dump ship's entire track history